map of KAN home
KAN - Airport
Location
City:  Kano, Kano, Nigeria
Name:Mallam Aminu Kano International Airport
ICAO:DNKN
IATA:KAN

Details
Type:Airport (Aerodrome, Airfield)
Use:Public/Civil, Military, International (customs port of entry)
Latitude:1202'51"N (12.047589)
Longitude:831'29"E (8.524622)
Datum:WGS 1984
Elevation:1562 ft (476 m)
Variation:0.11E (WMM2015v2 magnetic declination)
0.11 annual change
Runways:2
Longest:10831 × 197 ft (3301 × 60 m), paved

Time
Time Zone:UTC+1
Local Time:

Weather
METAR:DNKN 041400Z 14004KT CAVOK 34/05 Q1013 NOSIG
TAF:DNKN 040950Z 0412/0518 06010KT CAVOK= TAF LFBD 041100Z 0412/0518 15005KT CAVOK TX14/0514Z TN04/0412Z
BECMG 0412/0413 20010KT PROB40 0413/0415 4500 RA BKN014
BECMG 0415/0417 3000 -RA BKN004 OVC012
BECMG 0422/0424 VRB02KT 1400 BR OVC001 PROB40 0500/0509 0500 FG VV///
BECMG 0510/0512 18005KT 6000 NSW BKN006
TEMPO 0512/0518 3000 -RADZ BKN003

Related Locations
Nearby:
Farthest:AAU: 12309 mi / 19810 km
Asau, WS

Find:

   beyond  
but within

Other Information
Maps:
NOTAMs:
Links:
Sources:

  
  • flag of Nigeria
  

Sectional Chart

Flight Planning
at skyvector.com

Satellite Image

Google Maps Satellite view

 

Copyright © 2004-2019 Karl L. Swartz. All rights reserved.
The Great Circle Mapper name and logo are trademarks of the Great Circle Mapper.
All other trademarks mentioned herein belong to their respective owners.
Please see credits for attibutions and further copyright information.

  Follow gcmap on Facebook Follow gcmap on Twitter GCmap on LinkedIn

hCard Microformat

Geo Microformat